Time;durP1;ratioP1;P1;durP2;ratioP2;P2;SDS_P1;SDS_P2;PMS_P1;PMS_P2;Temp;Humidity;BMP_temperature;BMP_pressure;BME280_temperature;BME280_humidity;BME280_pressure;Samples;Min_cycle;Max_cycle;Signal;HPM_P1;HPM_P2
2023/12/25 00:02:14;;;;;;;4.60;2.50;;;;;;;10.17;100.00;98302.05;110549;1263;23799;-83
2023/12/25 00:04:57;;;;;;;4.00;2.70;;;;;;;10.26;100.00;98316.15;110420;1259;22517;-82
2023/12/25 00:07:53;;;;;;;3.90;2.20;;;;;;;10.28;100.00;98312.02;111195;1255;21975;-83
2023/12/25 00:10:29;;;;;;;4.20;2.10;;;;;;;10.30;100.00;98308.73;111298;1255;22309;-82
2023/12/25 00:13:19;;;;;;;3.70;2.30;;;;;;;10.33;100.00;98309.08;111362;1245;21976;-82
2023/12/25 00:16:05;;;;;;;2.50;1.70;;;;;;;10.35;100.00;98310.36;111296;1255;21972;-82
2023/12/25 00:18:55;;;;;;;3.40;2.00;;;;;;;10.39;100.00;98306.79;111289;1255;22002;-81
2023/12/25 00:21:47;;;;;;;2.40;2.00;;;;;;;10.44;100.00;98298.10;111254;1255;22734;-82
2023/12/25 00:24:28;;;;;;;2.80;1.80;;;;;;;10.49;100.00;98297.40;110922;1259;21963;-81
2023/12/25 00:27:10;;;;;;;2.90;1.50;;;;;;;10.54;100.00;98292.70;110956;1259;22177;-82
2023/12/25 00:29:59;;;;;;;1.90;1.30;;;;;;;10.57;100.00;98288.46;110942;1259;22281;-82
2023/12/25 00:32:47;;;;;;;2.40;1.60;;;;;;;10.63;100.00;98289.78;111059;1259;23767;-83
2023/12/25 00:35:42;;;;;;;1.90;1.30;;;;;;;10.68;100.00;98290.81;110659;1259;22274;-82
2023/12/25 00:38:22;;;;;;;2.80;1.60;;;;;;;10.73;100.00;98294.66;110924;1259;21980;-82
2023/12/25 00:41:10;;;;;;;1.90;1.40;;;;;;;10.78;100.00;98301.07;110786;1263;21975;-84
2023/12/25 00:43:48;;;;;;;1.40;1.00;;;;;;;10.83;100.00;98307.89;111053;1258;22991;-82
2023/12/25 00:46:25;;;;;;;2.00;1.20;;;;;;;10.87;100.00;98305.44;110969;1257;23667;-80
2023/12/25 00:49:12;;;;;;;2.30;1.30;;;;;;;10.92;100.00;98308.39;111101;1259;21969;-82
2023/12/25 00:51:49;;;;;;;2.80;1.60;;;;;;;10.95;100.00;98309.95;110916;1258;21939;-81
2023/12/25 00:54:27;;;;;;;3.20;1.80;;;;;;;10.99;100.00;98318.54;110994;1259;23637;-81
2023/12/25 00:57:05;;;;;;;2.70;1.60;;;;;;;11.01;100.00;98322.23;110981;1258;21934;-82
2023/12/25 01:00:07;;;;;;;;;;;;;;;;;;;;;
2023/12/25 01:02:38;;;;;;;2.10;1.40;;;;;;;11.00;100.00;98331.03;111464;1254;23715;-81
2023/12/25 01:05:17;;;;;;;2.30;1.30;;;;;;;10.98;100.00;98344.91;111332;1254;21963;-81
2023/12/25 01:07:54;;;;;;;1.90;1.20;;;;;;;10.99;100.00;98348.98;111385;1253;23583;-81
2023/12/25 01:10:41;;;;;;;2.50;1.60;;;;;;;10.98;100.00;98350.80;111329;1254;21938;-81
2023/12/25 01:13:19;;;;;;;2.40;1.60;;;;;;;10.96;100.00;98349.54;110902;1259;21986;-81
2023/12/25 01:16:05;;;;;;;2.10;1.30;;;;;;;10.89;100.00;98334.05;110978;1259;24419;-81
2023/12/25 01:18:42;;;;;;;1.60;1.10;;;;;;;10.97;100.00;98346.36;110946;1259;24295;-80
2023/12/25 01:21:17;;;;;;;2.30;1.50;;;;;;;10.99;100.00;98383.33;110463;1265;21989;-81
2023/12/25 01:23:57;;;;;;;4.90;1.50;;;;;;;11.00;100.00;98453.05;110351;1265;23508;-83
2023/12/25 01:26:46;;;;;;;2.80;1.30;;;;;;;10.95;100.00;98462.91;110228;1268;23683;-83
2023/12/25 01:29:26;;;;;;;3.60;1.60;;;;;;;10.92;100.00;98466.27;110208;1268;21988;-80
2023/12/25 01:32:04;;;;;;;4.50;1.40;;;;;;;10.89;100.00;98474.83;110282;1264;22027;-82
2023/12/25 01:34:53;;;;;;;2.70;1.30;;;;;;;10.81;100.00;98475.88;110166;1268;23720;-83
2023/12/25 01:37:50;;;;;;;;;;;;;;;10.73;100.00;98476.10;110346;1269;21987;-83
2023/12/25 01:41:25;;;;;;;1.80;0.80;;;;;;;10.53;100.00;98475.54;110802;1261;23679;-84
2023/12/25 01:44:26;;;;;;;2.00;0.80;;;;;;;10.42;100.00;98484.10;110073;1265;23599;-84
2023/12/25 01:47:32;;;;;;;2.40;0.90;;;;;;;10.30;100.00;98473.95;110427;1265;21971;-84
2023/12/25 01:50:30;;;;;;;3.90;1.30;;;;;;;10.32;100.00;98485.42;110544;1265;22387;-83
2023/12/25 01:53:17;;;;;;;1.20;0.70;;;;;;;10.29;100.00;98485.60;110396;1264;22089;-84
2023/12/25 01:56:33;;;;;;;2.90;0.70;;;;;;;10.26;100.00;98491.19;110395;1264;22013;-84
2023/12/25 01:59:30;;;;;;;2.50;0.90;;;;;;;10.22;100.00;98493.36;110511;1264;23046;-82
2023/12/25 02:02:45;;;;;;;1.90;0.80;;;;;;;10.17;100.00;98490.23;110470;1258;21990;-84
2023/12/25 02:06:29;;;;;;;2.60;0.80;;;;;;;10.16;100.00;98498.82;111130;1258;23020;-87
2023/12/25 02:09:24;;;;;;;2.20;0.90;;;;;;;10.17;100.00;98503.77;110330;1267;22327;-84
2023/12/25 02:13:02;;;;;;;2.00;1.00;;;;;;;10.18;100.00;98503.73;110705;1262;23028;-81
2023/12/25 02:20:18;;;;;;;2.20;0.80;;;;;;;10.17;100.00;98508.52;109753;1272;23627;-82
2023/12/25 02:23:13;;;;;;;1.80;1.00;;;;;;;10.19;100.00;98509.05;109554;1271;21993;-85
2023/12/25 02:26:22;;;;;;;1.40;0.90;;;;;;;10.20;100.00;98514.73;109484;1272;22336;-84
2023/12/25 02:29:43;;;;;;;2.10;0.80;;;;;;;10.19;100.00;98522.30;109613;1271;21990;-84
2023/12/25 02:33:34;;;;;;;;;;;;;;;;;;;;;
2023/12/25 02:36:34;;;;;;;;;;;;;;;;;;;;;
2023/12/25 02:44:22;;;;;;;4.20;1.60;;;;;;;10.08;100.00;98544.50;108629;1277;21991;-83
2023/12/25 02:47:30;;;;;;;2.80;1.10;;;;;;;10.06;100.00;98554.56;108557;1285;23651;-85
2023/12/25 02:51:32;;;;;;;;;;;;;;;;;;;;;
2023/12/25 02:54:40;;;;;;;4.10;1.40;;;;;;;9.97;100.00;98555.83;108530;1286;22069;-84
2023/12/25 02:58:49;;;;;;;;;;;;;;;;;;;;;
2023/12/25 03:02:34;;;;;;;;;;;;;;;;;;;;;
2023/12/25 03:07:10;;;;;;;;;;;;;;;;;;;;;
2023/12/25 03:10:20;;;;;;;4.40;1.90;;;;;;;9.79;100.00;98546.02;108467;1287;24350;-89
2023/12/25 03:14:29;;;;;;;5.00;2.20;;;;;;;9.80;100.00;98561.96;108456;1287;22035;-86
2023/12/25 03:17:28;;;;;;;6.00;1.80;;;;;;;9.76;100.00;98573.11;107775;1295;22049;-85
2023/12/25 03:20:27;;;;;;;3.60;2.20;;;;;;;9.76;100.00;98564.09;107664;1296;22034;-84
2023/12/25 03:24:05;;;;;;;;;;;;;;;;;;;;;
2023/12/25 03:27:00;;;;;;;;;;;;;;;;;;;;;
2023/12/25 03:30:06;;;;;;;7.80;6.70;;;;;;;9.76;100.00;98579.70;107918;1296;22021;-84
2023/12/25 03:34:18;;;;;;;;;;;;;;;;;;;;;
2023/12/25 03:37:14;;;;;;;8.80;7.90;;;;;;;9.72;100.00;98584.50;107454;1292;22069;-82
2023/12/25 03:39:46;;;;;;;3.50;2.30;;;;;;;9.81;100.00;98594.36;107961;1292;23856;-82
2023/12/25 03:42:20;;;;;;;4.50;1.90;;;;;;;9.84;100.00;98590.70;107872;1286;23321;-81
2023/12/25 03:44:53;;;;;;;2.90;1.30;;;;;;;9.88;100.00;98593.25;108461;1286;22313;-83
2023/12/25 03:47:25;;;;;;;4.00;1.40;;;;;;;9.88;100.00;98593.58;108467;1282;23720;-83
2023/12/25 03:49:55;;;;;;;3.60;1.50;;;;;;;9.89;100.00;98600.27;108844;1278;22006;-84
2023/12/25 03:52:41;;;;;;;4.10;0.90;;;;;;;9.84;100.00;98587.77;109000;1272;23605;-84
2023/12/25 03:55:13;;;;;;;3.90;1.10;;;;;;;9.94;100.00;98613.71;109224;1272;22425;-83
2023/12/25 03:57:49;;;;;;;1.40;0.90;;;;;;;9.97;100.00;98615.10;109900;1262;21975;-82
2023/12/25 04:00:36;;;;;;;3.60;1.30;;;;;;;9.99;100.00;98620.89;110603;1262;22014;-82
2023/12/25 04:03:29;;;;;;;3.40;1.30;;;;;;;9.98;100.00;98621.78;110669;1263;22985;-81
2023/12/25 04:06:36;;;;;;;3.30;1.30;;;;;;;9.99;100.00;98621.39;110278;1264;22008;-82
2023/12/25 04:09:27;;;;;;;6.80;4.50;;;;;;;9.99;100.00;98617.03;109624;1272;23659;-82
2023/12/25 04:13:31;;;;;;;;;;;;;;;;;;;;;
2023/12/25 04:17:28;;;;;;;;;;;;;;;;;;;;;
2023/12/25 04:24:47;;;;;;;7.60;6.60;;;;;;;9.98;100.00;98612.27;109337;1270;23066;-84
2023/12/25 04:27:53;;;;;;;4.40;3.70;;;;;;;9.99;100.00;98612.00;109597;1272;21995;-85
2023/12/25 04:31:21;;;;;;;7.20;3.50;;;;;;;9.99;100.00;98632.88;108883;1283;21995;-85
2023/12/25 04:34:17;;;;;;;7.10;3.80;;;;;;;9.99;100.00;98641.58;108478;1288;22076;-84
2023/12/25 04:37:10;;;;;;;3.70;2.00;;;;;;;10.02;100.00;98641.17;108341;1288;22015;-82
2023/12/25 04:39:46;;;;;;;3.60;1.50;;;;;;;10.04;100.00;98648.18;108444;1288;22008;-82
2023/12/25 04:42:38;;;;;;;3.90;1.50;;;;;;;10.06;100.00;98650.13;108479;1288;22025;-82
2023/12/25 04:45:12;;;;;;;5.00;1.40;;;;;;;10.06;100.00;98652.61;108520;1288;21997;-82
2023/12/25 04:47:45;;;;;;;3.50;1.50;;;;;;;10.09;100.00;98653.63;108780;1278;22019;-83
2023/12/25 04:50:28;;;;;;;5.40;1.70;;;;;;;10.10;100.00;98656.34;108769;1283;22055;-83
2023/12/25 04:53:15;;;;;;;2.60;1.40;;;;;;;10.09;100.00;98657.05;108976;1278;22158;-85
2023/12/25 04:55:56;;;;;;;2.90;1.40;;;;;;;10.11;100.00;98661.80;109104;1270;22314;-84
2023/12/25 04:58:40;;;;;;;5.60;2.00;;;;;;;10.15;100.00;98665.58;109648;1270;22011;-83
2023/12/25 05:01:43;;;;;;;;;;;;;;;;;;;;;
2023/12/25 05:04:32;;;;;;;3.60;0.90;;;;;;;10.14;100.00;98655.05;109187;1276;21961;-85
2023/12/25 05:07:16;;;;;;;37.70;30.30;;;;;;;10.16;100.00;98647.58;108842;1280;23148;-82
2023/12/25 05:09:50;;;;;;;4.80;2.50;;;;;;;10.21;100.00;98648.30;109425;1273;22495;-82
2023/12/25 05:12:34;;;;;;;8.10;2.50;;;;;;;10.26;100.00;98650.09;109012;1278;21997;-83
2023/12/25 05:15:23;;;;;;;4.60;1.90;;;;;;;10.27;100.00;98654.40;108827;1280;22015;-80
2023/12/25 05:18:01;;;;;;;2.50;1.30;;;;;;;10.27;100.00;98656.15;108383;1284;22213;-81
2023/12/25 05:20:39;;;;;;;3.00;1.50;;;;;;;10.27;100.00;98653.73;108918;1280;22071;-82
2023/12/25 05:23:27;;;;;;;4.60;1.80;;;;;;;10.27;100.00;98651.42;108695;1280;21990;-83
2023/12/25 05:26:27;;;;;;;;;;;;;;;;;;;;;
2023/12/25 05:29:37;;;;;;;2.20;1.40;;;;;;;10.22;100.00;98635.77;109015;1276;22002;-83
2023/12/25 05:32:35;;;;;;;;;;;;;;;10.18;100.00;98638.64;109040;1271;24310;-83
2023/12/25 05:35:17;;;;;;;3.30;1.90;;;;;;;10.06;100.00;98640.41;109501;1270;21978;-82
2023/12/25 05:38:00;;;;;;;4.50;1.90;;;;;;;10.04;100.00;98638.27;109944;1270;23749;-82
2023/12/25 05:41:03;;;;;;;3.20;1.70;;;;;;;10.04;100.00;98640.36;109947;1269;22999;-81
2023/12/25 05:43:49;;;;;;;2.90;2.00;;;;;;;10.05;100.00;98642.01;110102;1263;23148;-83
2023/12/25 05:46:34;;;;;;;3.50;2.10;;;;;;;10.07;100.00;98640.70;110096;1269;21984;-83
2023/12/25 05:49:30;;;;;;;5.00;2.50;;;;;;;10.05;100.00;98636.16;109450;1271;21984;-83
2023/12/25 05:52:57;;;;;;;;;;;;;;;;;;;;;
2023/12/25 05:55:55;;;;;;;;;;;;;;;9.96;100.00;98639.45;110418;1265;22470;-83
2023/12/25 06:02:22;;;;;;;4.10;1.80;;;;;;;9.83;100.00;98643.02;109790;1271;22017;-84
2023/12/25 06:04:52;;;;;;;3.60;1.70;;;;;;;9.86;100.00;98644.81;109542;1271;22069;-82
2023/12/25 06:07:36;;;;;;;3.90;1.80;;;;;;;9.87;100.00;98638.46;109997;1266;21987;-81
2023/12/25 06:10:13;;;;;;;3.20;1.60;;;;;;;9.90;100.00;98640.89;110293;1267;21972;-83
2023/12/25 06:12:56;;;;;;;2.70;1.10;;;;;;;9.91;100.00;98654.21;110062;1267;23656;-86
2023/12/25 06:15:37;;;;;;;3.00;1.50;;;;;;;9.91;100.00;98655.21;110382;1267;22392;-83
2023/12/25 06:18:35;;;;;;;2.10;1.10;;;;;;;9.88;100.00;98649.69;110403;1267;23600;-82
2023/12/25 06:21:19;;;;;;;3.40;1.20;;;;;;;9.86;100.00;98653.64;110072;1269;21985;-84
2023/12/25 06:24:21;;;;;;;4.80;1.70;;;;;;;9.84;100.00;98653.59;109982;1269;23036;-83
2023/12/25 06:26:59;;;;;;;2.50;1.20;;;;;;;9.92;100.00;98659.38;109618;1269;23082;-83
2023/12/25 06:29:32;;;;;;;3.60;1.40;;;;;;;9.91;100.00;98656.95;109886;1269;22296;-82
2023/12/25 06:32:12;;;;;;;4.20;1.30;;;;;;;9.91;100.00;98652.27;109626;1272;23697;-85
2023/12/25 06:34:42;;;;;;;3.80;1.60;;;;;;;9.92;100.00;98654.84;109496;1273;23607;-84
2023/12/25 06:37:30;;;;;;;3.30;1.70;;;;;;;9.93;100.00;98650.63;109170;1276;22448;-84
2023/12/25 06:40:13;;;;;;;5.30;3.20;;;;;;;9.92;100.00;98650.98;109656;1270;23717;-83
2023/12/25 06:42:46;;;;;;;6.70;3.00;;;;;;;9.91;100.00;98651.61;109821;1270;22470;-82
2023/12/25 06:45:35;;;;;;;3.90;2.20;;;;;;;9.90;100.00;98656.68;109776;1270;23724;-82
2023/12/25 06:48:10;;;;;;;5.20;1.90;;;;;;;9.90;100.00;98647.98;109657;1270;23094;-83
2023/12/25 06:50:53;;;;;;;4.70;1.70;;;;;;;9.90;100.00;98647.15;110203;1265;22058;-84
2023/12/25 06:53:50;;;;;;;4.40;1.80;;;;;;;9.86;100.00;98649.83;110545;1259;22285;-83
2023/12/25 06:56:45;;;;;;;6.10;3.10;;;;;;;9.85;100.00;98651.99;110854;1261;23625;-84
2023/12/25 06:59:30;;;;;;;6.40;2.80;;;;;;;9.82;100.00;98653.02;110400;1265;22011;-82
2023/12/25 07:02:08;;;;;;;5.80;1.90;;;;;;;9.84;100.00;98661.05;110140;1269;22243;-83
2023/12/25 07:05:06;;;;;;;4.00;1.80;;;;;;;9.85;100.00;98669.68;109795;1270;22363;-84
2023/12/25 07:09:16;;;;;;;;;;;;;;;;;;;;;
2023/12/25 07:13:37;;;;;;;;;;;;;;;;;;;;;
2023/12/25 07:17:10;;;;;;;;;;;;;;;;;;;;;
2023/12/25 07:21:01;;;;;;;8.20;2.10;;;;;;;9.84;100.00;98660.04;108660;1279;21994;-83
2023/12/25 07:25:07;;;;;;;;;;;;;;;;;;;;;
2023/12/25 07:28:17;;;;;;;4.70;1.90;;;;;;;9.87;100.00;98661.21;108244;1290;22237;-83
2023/12/25 07:31:43;;;;;;;;;;;;;;;;;;;;;
2023/12/25 07:35:43;;;;;;;6.90;3.70;;;;;;;9.90;100.00;98667.09;107834;1294;22036;-83
2023/12/25 07:38:59;;;;;;;4.00;2.30;;;;;;;9.91;100.00;98670.55;108158;1291;22042;-84
2023/12/25 07:42:23;;;;;;;;;;;;;;;;;;;;;
2023/12/25 07:45:10;;;;;;;5.30;2.80;;;;;;;9.95;100.00;98679.86;108229;1288;22012;-86
2023/12/25 07:48:50;;;;;;;7.10;2.20;;;;;;;9.98;100.00;98692.50;108394;1289;23703;-83
2023/12/25 07:55:49;;;;;;;4.60;2.40;;;;;;;9.99;100.00;98685.88;108672;1285;22060;-84
2023/12/25 08:02:57;;;;;;;4.60;2.30;;;;;;;10.00;100.00;98676.05;108596;1285;22022;-82
2023/12/25 08:05:51;;;;;;;5.20;2.80;;;;;;;10.11;100.00;98678.52;108710;1278;22527;-85
2023/12/25 08:08:57;;;;;;;5.20;2.10;;;;;;;10.20;100.00;98680.71;109456;1272;21983;-87
2023/12/25 08:11:56;;;;;;;5.90;2.70;;;;;;;10.24;100.00;98679.47;109298;1272;22960;-86
2023/12/25 08:15:33;;;;;;;4.80;3.30;;;;;;;10.26;100.00;98674.30;109308;1272;22003;-86
2023/12/25 08:19:03;;;;;;;4.20;3.00;;;;;;;10.18;100.00;98650.27;108833;1282;22088;-88
2023/12/25 08:21:34;;;;;;;5.10;2.80;;;;;;;10.27;100.00;98647.77;108367;1287;23628;-87
2023/12/25 08:24:18;;;;;;;5.50;4.20;;;;;;;10.30;100.00;98647.06;108530;1286;23027;-86
2023/12/25 08:26:56;;;;;;;5.40;3.20;;;;;;;10.28;100.00;98644.79;108345;1284;23056;-84
2023/12/25 08:29:37;;;;;;;4.70;3.10;;;;;;;10.37;100.00;98660.20;108493;1284;22466;-87
2023/12/25 08:32:22;;;;;;;;;;;;;;;;;;;;;
2023/12/25 08:35:03;;;;;;;6.50;3.40;;;;;;;10.42;100.00;98667.40;108717;1283;23739;-86
2023/12/25 08:37:59;;;;;;;9.40;5.50;;;;;;;10.45;100.00;98668.58;108468;1283;22027;-86
2023/12/25 08:40:30;;;;;;;5.80;3.70;;;;;;;10.48;100.00;98673.81;108858;1278;23081;-86
2023/12/25 08:43:03;;;;;;;3.50;2.00;;;;;;;10.53;100.00;98672.60;108967;1278;22412;-85
2023/12/25 08:45:53;;;;;;;3.80;2.50;;;;;;;10.57;100.00;98679.98;108935;1278;21994;-86
2023/12/25 08:48:36;;;;;;;5.20;2.30;;;;;;;10.60;100.00;98684.52;109334;1274;23657;-81
2023/12/25 08:51:09;;;;;;;12.90;2.80;;;;;;;10.66;100.00;98689.35;109155;1273;22017;-83
2023/12/25 08:53:48;;;;;;;4.80;3.40;;;;;;;10.74;100.00;98690.92;109262;1274;22013;-81
2023/12/25 08:56:49;;;;;;;5.50;3.60;;;;;;;10.79;100.00;98696.29;109948;1264;21971;-83
2023/12/25 08:59:25;;;;;;;5.20;3.70;;;;;;;10.82;100.00;98702.41;110508;1261;21963;-79
2023/12/25 09:02:28;;;;;;;4.20;3.30;;;;;;;10.83;100.00;98708.23;110709;1263;22035;-84
2023/12/25 09:08:08;;;;;;;228.20;96.40;;;;;;;10.87;100.00;98709.51;110584;1262;23696;-85
2023/12/25 09:10:55;;;;;;;36.30;19.90;;;;;;;10.91;100.00;98715.52;109998;1265;23025;-82
2023/12/25 09:13:49;;;;;;;13.00;8.30;;;;;;;10.91;100.00;98713.27;110499;1263;22455;-83
2023/12/25 09:16:50;;;;;;;9.80;8.40;;;;;;;10.92;100.00;98701.17;110501;1257;22915;-82
2023/12/25 09:20:11;;;;;;;12.80;10.70;;;;;;;10.89;100.00;98701.42;110619;1265;24632;-81
2023/12/25 09:22:57;;;;;;;12.20;10.50;;;;;;;10.86;100.00;98696.38;110509;1265;22004;-82
2023/12/25 09:26:03;;;;;;;11.50;8.90;;;;;;;10.83;100.00;98695.35;110194;1268;21998;-82
2023/12/25 09:28:46;;;;;;;9.20;7.60;;;;;;;10.87;100.00;98694.20;109223;1267;23769;-84
2023/12/25 09:31:33;;;;;;;10.10;6.60;;;;;;;10.87;100.00;98698.06;110230;1266;22019;-80
2023/12/25 09:34:26;;;;;;;12.60;7.40;;;;;;;10.90;100.00;98704.96;109529;1271;22121;-82
2023/12/25 09:37:29;;;;;;;6.20;5.20;;;;;;;10.89;100.00;98705.09;109608;1272;21980;-82
2023/12/25 09:40:27;;;;;;;9.10;6.50;;;;;;;10.89;100.00;98710.77;109543;1271;22447;-81
2023/12/25 09:43:19;;;;;;;;;;;;;;;10.93;100.00;98719.24;109531;1267;22069;-82
2023/12/25 09:46:08;;;;;;;4.50;3.00;;;;;;;10.88;100.00;98719.55;110093;1265;22350;-82
2023/12/25 09:48:51;;;;;;;4.80;3.00;;;;;;;10.94;100.00;98723.53;110255;1265;23528;-81
2023/12/25 09:51:34;;;;;;;4.40;3.20;;;;;;;10.97;100.00;98726.80;110328;1260;23706;-86
2023/12/25 09:54:26;;;;;;;4.50;3.20;;;;;;;11.02;100.00;98733.31;110253;1265;22803;-83
2023/12/25 09:57:10;;;;;;;4.30;3.10;;;;;;;11.03;100.00;98748.02;110163;1267;21980;-84
2023/12/25 09:59:52;;;;;;;6.40;4.40;;;;;;;11.04;100.00;98747.92;110231;1266;22001;-83
2023/12/25 10:02:34;;;;;;;6.40;3.50;;;;;;;11.07;100.00;98743.41;110283;1267;21985;-81
2023/12/25 10:05:43;;;;;;;5.50;3.30;;;;;;;11.07;100.00;98733.48;110166;1267;21999;-82
2023/12/25 10:08:30;;;;;;;6.40;3.80;;;;;;;11.13;100.00;98727.67;110035;1270;21999;-84
2023/12/25 10:11:17;;;;;;;10.40;5.80;;;;;;;11.21;100.00;98727.16;109445;1270;22788;-84
2023/12/25 10:14:02;;;;;;;8.70;7.20;;;;;;;11.25;100.00;98729.67;110263;1268;22130;-83
2023/12/25 10:16:57;;;;;;;9.90;7.20;;;;;;;11.26;100.00;98724.02;109524;1271;21987;-85
2023/12/25 10:20:08;;;;;;;10.00;8.60;;;;;;;11.28;100.00;98727.59;109513;1271;21993;-82
2023/12/25 10:22:56;;;;;;;7.60;4.60;;;;;;;11.29;100.00;98742.27;109541;1268;21985;-82
2023/12/25 10:25:53;;;;;;;6.90;4.50;;;;;;;11.30;100.00;98741.71;109978;1267;22000;-82
2023/12/25 10:28:42;;;;;;;7.20;4.60;;;;;;;11.32;100.00;98737.09;110021;1267;22975;-83
2023/12/25 10:31:46;;;;;;;;;;;;;;;;;;;;;
2023/12/25 10:34:44;;;;;;;7.40;4.20;;;;;;;11.34;100.00;98739.52;110834;1254;21963;-82
2023/12/25 10:38:04;;;;;;;7.40;4.10;;;;;;;11.32;100.00;98737.44;111051;1251;21966;-82
2023/12/25 10:41:43;;;;;;;6.60;4.30;;;;;;;11.36;100.00;98744.66;110665;1263;21969;-82
2023/12/25 10:44:39;;;;;;;11.30;5.70;;;;;;;11.35;100.00;98753.41;110634;1263;22003;-83
2023/12/25 10:47:31;;;;;;;8.00;5.20;;;;;;;11.40;100.00;98760.77;110795;1262;23033;-83
2023/12/25 10:50:34;;;;;;;6.50;3.30;;;;;;;11.43;100.00;98763.33;110466;1263;22086;-81
2023/12/25 10:53:37;;;;;;;8.50;5.00;;;;;;;11.42;100.00;98775.59;110726;1263;24913;-82
2023/12/25 10:56:21;;;;;;;4.40;2.70;;;;;;;11.42;100.00;98778.23;110757;1258;21963;-82
2023/12/25 10:59:36;;;;;;;4.30;2.80;;;;;;;11.41;100.00;98788.53;110236;1265;21984;-82
2023/12/25 11:02:37;;;;;;;7.40;4.20;;;;;;;11.37;100.00;98798.40;109564;1272;23087;-82
2023/12/25 11:05:26;;;;;;;6.40;3.70;;;;;;;11.37;100.00;98797.34;109443;1274;23617;-83
2023/12/25 11:08:17;;;;;;;12.90;9.10;;;;;;;11.35;100.00;98785.46;109469;1272;21997;-81
2023/12/25 11:11:18;;;;;;;8.80;5.30;;;;;;;11.31;100.00;98787.23;109440;1274;23039;-80
2023/12/25 11:13:48;;;;;;;8.50;5.80;;;;;;;11.32;100.00;98786.19;109416;1272;23197;-81
2023/12/25 11:16:32;;;;;;;8.80;6.00;;;;;;;11.30;100.00;98778.27;109502;1269;21992;-81
2023/12/25 11:19:16;;;;;;;10.30;6.00;;;;;;;11.30;100.00;98780.38;109832;1258;21995;-84
2023/12/25 11:22:01;;;;;;;6.00;3.80;;;;;;;11.26;100.00;98780.27;110239;1266;21972;-83
2023/12/25 11:24:37;;;;;;;6.20;3.90;;;;;;;11.21;100.00;98795.39;110317;1267;23061;-81
2023/12/25 11:27:16;;;;;;;9.40;5.30;;;;;;;11.18;100.00;98794.55;110176;1267;23664;-82
2023/12/25 11:30:12;;;;;;;6.60;3.50;;;;;;;11.16;100.00;98794.16;110335;1257;22022;-84
2023/12/25 11:32:52;;;;;;;4.70;2.90;;;;;;;11.18;100.00;98789.02;110444;1267;21942;-82
2023/12/25 11:35:47;;;;;;;4.30;2.00;;;;;;;11.21;100.00;98793.64;110272;1259;22001;-82
2023/12/25 11:38:33;;;;;;;10.40;3.40;;;;;;;11.20;100.00;98798.66;110900;1254;24151;-83
2023/12/25 11:41:22;;;;;;;4.40;2.40;;;;;;;11.12;100.00;98790.59;111519;1254;23001;-82
2023/12/25 11:44:08;;;;;;;5.80;3.00;;;;;;;11.20;100.00;98805.25;110863;1257;21986;-82
2023/12/25 11:47:49;;;;;;;5.90;4.10;;;;;;;11.14;100.00;98805.25;110930;1260;24373;-81
2023/12/25 11:50:35;;;;;;;5.10;3.00;;;;;;;11.09;100.00;98814.80;110988;1260;22001;-83
2023/12/25 11:53:38;;;;;;;6.50;4.30;;;;;;;11.07;100.00;98813.39;110677;1264;22379;-82
2023/12/25 11:56:17;;;;;;;7.10;2.90;;;;;;;11.06;100.00;98824.95;110632;1264;22023;-82
2023/12/25 11:59:10;;;;;;;8.80;4.20;;;;;;;11.05;100.00;98833.74;110555;1264;21998;-82
2023/12/25 12:01:47;;;;;;;5.00;3.40;;;;;;;11.05;100.00;98838.20;110665;1258;22041;-82
2023/12/25 12:04:45;;;;;;;7.20;3.70;;;;;;;11.06;100.00;98843.70;111189;1258;21959;-83
2023/12/25 12:08:01;;;;;;;8.90;5.70;;;;;;;11.08;100.00;98840.29;110607;1263;21980;-84
2023/12/25 12:11:24;;;;;;;;;;;;;;;11.07;100.00;98849.06;110422;1260;21951;-85
2023/12/25 12:15:01;;;;;;;8.20;4.00;;;;;;;10.99;100.00;98866.12;110349;1265;23059;-86
2023/12/25 12:17:41;;;;;;;6.00;3.30;;;;;;;11.01;100.00;98876.45;109792;1271;22001;-84
2023/12/25 12:20:32;;;;;;;;;;;;;;;10.98;100.00;98859.40;109836;1271;23071;-84
2023/12/25 12:23:42;;;;;;;7.20;3.30;;;;;;;10.96;100.00;98873.27;109974;1271;21991;-85
2023/12/25 12:26:38;;;;;;;5.80;3.20;;;;;;;10.93;100.00;98873.12;110430;1264;21939;-86
2023/12/25 12:29:19;;;;;;;8.10;3.70;;;;;;;10.92;100.00;98874.88;110535;1264;21974;-86
2023/12/25 12:32:05;;;;;;;9.80;4.20;;;;;;;10.93;100.00;98879.00;110100;1264;21978;-84
2023/12/25 12:34:58;;;;;;;7.70;4.60;;;;;;;10.92;100.00;98888.79;110408;1259;22802;-84
2023/12/25 12:37:46;;;;;;;7.20;3.60;;;;;;;10.94;100.00;98894.63;110296;1261;22060;-82
2023/12/25 12:41:23;;;;;;;4.90;2.50;;;;;;;10.93;100.00;98904.27;110314;1265;22356;-83
2023/12/25 12:44:51;;;;;;;5.00;3.00;;;;;;;10.91;100.00;98911.33;109973;1269;23726;-83
2023/12/25 12:51:26;;;;;;;7.10;3.40;;;;;;;10.90;100.00;98919.55;109032;1275;22452;-83
2023/12/25 12:54:45;;;;;;;;;;;;;;;;;;;;;
2023/12/25 12:57:45;;;;;;;6.40;3.60;;;;;;;10.93;100.00;98903.05;109014;1278;22012;-85
2023/12/25 13:01:15;;;;;;;5.90;3.80;;;;;;;11.03;100.00;98921.22;109279;1273;21980;-81
2023/12/25 13:04:34;;;;;;;7.70;3.40;;;;;;;11.05;100.00;98919.19;109132;1276;23625;-83
2023/12/25 13:07:31;;;;;;;7.50;4.00;;;;;;;11.05;100.00;98921.44;109062;1278;22650;-81
2023/12/25 13:11:00;;;;;;;7.90;3.70;;;;;;;11.02;100.00;98923.52;109216;1277;21989;-80
2023/12/25 13:15:21;;;;;;;4.10;2.30;;;;;;;10.99;100.00;98930.84;108956;1283;21999;-80
2023/12/25 13:18:06;;;;;;;5.40;2.70;;;;;;;11.00;100.00;98928.88;108391;1291;23041;-81
2023/12/25 13:21:01;;;;;;;7.60;3.90;;;;;;;11.04;100.00;98931.23;108146;1291;24144;-84
2023/12/25 13:23:38;;;;;;;11.00;4.70;;;;;;;11.08;100.00;98937.80;108211;1291;22005;-83
2023/12/25 13:26:37;;;;;;;5.80;4.30;;;;;;;11.09;100.00;98944.34;108400;1291;22343;-82
2023/12/25 13:29:43;;;;;;;8.00;3.30;;;;;;;11.12;100.00;98956.87;108845;1282;22450;-83
2023/12/25 13:32:42;;;;;;;5.10;3.10;;;;;;;11.10;100.00;98961.34;110113;1269;21998;-82
2023/12/25 13:35:18;;;;;;;6.10;2.90;;;;;;;11.10;100.00;98964.44;109755;1269;23753;-84
2023/12/25 13:38:03;;;;;;;7.40;3.30;;;;;;;11.13;100.00;98971.92;109743;1269;21978;-83
2023/12/25 13:40:54;;;;;;;6.80;3.00;;;;;;;11.11;100.00;98971.73;110086;1263;21986;-81
2023/12/25 13:43:35;;;;;;;11.40;5.80;;;;;;;11.08;100.00;98970.66;110537;1263;22014;-86
2023/12/25 13:46:11;;;;;;;6.30;3.10;;;;;;;11.04;100.00;98977.04;110354;1263;21974;-88
2023/12/25 13:49:59;;;;;;;;;;;;;;;;;;;;;
2023/12/25 13:52:42;;;;;;;6.70;2.60;;;;;;;10.91;100.00;98981.84;110476;1265;23622;-87
2023/12/25 14:00:53;;;;;;;5.70;3.10;;;;;;;10.68;100.00;98982.00;110618;1265;23047;-84
2023/12/25 14:07:53;;;;;;;7.60;3.50;;;;;;;10.62;100.00;99003.09;109754;1271;24378;-85
2023/12/25 14:11:28;;;;;;;7.10;3.40;;;;;;;10.52;100.00;98996.52;109667;1271;21980;-83
2023/12/25 14:14:48;;;;;;;7.00;3.70;;;;;;;10.49;100.00;99006.09;109188;1279;22767;-88
2023/12/25 14:17:51;;;;;;;6.30;3.10;;;;;;;10.52;100.00;99015.31;108911;1279;23684;-84
2023/12/25 14:21:09;;;;;;;;;;;;;;;;;;;;;
2023/12/25 14:24:03;;;;;;;;;;;;;;;;;;;;;
2023/12/25 14:26:51;;;;;;;5.60;3.00;;;;;;;10.41;100.00;99037.35;108701;1283;23055;-82
2023/12/25 14:30:03;;;;;;;5.50;3.20;;;;;;;10.52;100.00;99031.80;108333;1289;544169;-85
2023/12/25 14:33:16;;;;;;;6.30;3.20;;;;;;;10.46;100.00;99032.89;109994;1269;22974;-82
2023/12/25 14:36:39;;;;;;;5.40;3.30;;;;;;;10.39;100.00;99033.79;109655;1274;22020;-84
2023/12/25 14:39:35;;;;;;;7.90;3.60;;;;;;;10.38;100.00;99039.77;109771;1272;22029;-85
2023/12/25 14:42:18;;;;;;;5.60;4.10;;;;;;;10.39;100.00;99043.16;109892;1272;22754;-81
2023/12/25 14:48:55;;;;;;;4.20;3.00;;;;;;;10.36;100.00;99062.13;110430;1266;22079;-82
2023/12/25 14:51:56;;;;;;;10.40;8.60;;;;;;;10.39;100.00;99061.46;110372;1264;24308;-83
2023/12/25 14:58:19;;;;;;;7.30;3.80;;;;;;;10.43;100.00;99064.33;111369;1254;22649;-86
2023/12/25 15:02:09;;;;;;;5.60;3.00;;;;;;;10.41;100.00;99077.30;111504;1254;21990;-85
2023/12/25 15:05:01;;;;;;;8.20;4.30;;;;;;;10.42;100.00;99086.51;111340;1255;21973;-88
2023/12/25 15:08:07;;;;;;;9.90;5.20;;;;;;;10.41;100.00;99090.86;111455;1255;22725;-81
2023/12/25 15:10:50;;;;;;;9.30;4.20;;;;;;;10.41;100.00;99092.27;110874;1260;22682;-81